createdAt,value
2018-04-07T00:00:09.856Z,1002.74
2018-04-07T00:01:09.833Z,1002.7
2018-04-07T00:02:09.808Z,1002.69
2018-04-07T00:03:09.782Z,1002.68
2018-04-07T00:04:09.759Z,1002.66
2018-04-07T00:05:09.734Z,1002.64
2018-04-07T00:06:09.710Z,1002.65
2018-04-07T00:07:09.689Z,1002.7
2018-04-07T00:08:09.664Z,1002.65
2018-04-07T00:09:09.635Z,1002.64
2018-04-07T00:10:09.611Z,1002.64
2018-04-07T00:11:09.587Z,1002.63
2018-04-07T00:12:09.561Z,1002.58
2018-04-07T00:13:09.537Z,1002.61
2018-04-07T00:14:09.513Z,1002.58
2018-04-07T00:15:09.489Z,1002.6
2018-04-07T00:16:09.464Z,1002.56
2018-04-07T00:17:09.444Z,1002.53
2018-04-07T00:18:09.414Z,1002.57
2018-04-07T00:19:09.390Z,1002.54
2018-04-07T00:20:09.365Z,1002.56
2018-04-07T00:21:09.340Z,1002.58
2018-04-07T00:22:09.318Z,1002.55
2018-04-07T00:23:09.291Z,1002.55
2018-04-07T00:24:09.266Z,1002.56
2018-04-07T00:25:09.243Z,1002.56
2018-04-07T00:26:09.217Z,1002.49
2018-04-07T00:27:09.196Z,1002.51
2018-04-07T00:28:09.168Z,1002.51
2018-04-07T00:29:09.142Z,1002.44
2018-04-07T00:30:09.119Z,1002.5
2018-04-07T00:31:09.094Z,1002.48
2018-04-07T00:32:09.067Z,1002.49
2018-04-07T00:33:09.044Z,1002.43
2018-04-07T00:34:09.020Z,1002.44
2018-04-07T00:35:08.994Z,1002.44
2018-04-07T00:36:08.970Z,1002.44
2018-04-07T00:37:08.945Z,1002.44
2018-04-07T00:38:08.925Z,1002.46
2018-04-07T00:39:08.895Z,1002.47
2018-04-07T00:40:08.870Z,1002.48
2018-04-07T00:41:08.851Z,1002.48
2018-04-07T00:42:08.821Z,1002.45
2018-04-07T00:43:08.795Z,1002.5
2018-04-07T00:44:08.772Z,1002.49
2018-04-07T00:45:08.748Z,1002.47
2018-04-07T00:46:08.726Z,1002.5
2018-04-07T00:47:08.698Z,1002.45
2018-04-07T00:48:08.673Z,1002.5
2018-04-07T00:49:08.649Z,1002.45
2018-04-07T00:50:08.624Z,1002.42
2018-04-07T00:51:08.599Z,1002.44
2018-04-07T00:52:08.573Z,1002.44
2018-04-07T00:53:08.550Z,1002.4
2018-04-07T00:54:08.523Z,1002.42
2018-04-07T00:55:08.501Z,1002.41
2018-04-07T00:56:08.475Z,1002.4
2018-04-07T00:57:08.450Z,1002.49
2018-04-07T00:58:08.424Z,1002.48
2018-04-07T00:59:08.399Z,1002.5
2018-04-07T01:00:08.376Z,1002.46
2018-04-07T01:01:08.352Z,1002.47
2018-04-07T01:02:08.325Z,1002.49
2018-04-07T01:03:08.299Z,1002.51
2018-04-07T01:04:08.278Z,1002.5
2018-04-07T01:05:08.250Z,1002.44
2018-04-07T01:06:08.226Z,1002.44
2018-04-07T01:07:08.201Z,1002.41
2018-04-07T01:08:08.176Z,1002.43
2018-04-07T01:09:08.150Z,1002.34
2018-04-07T01:10:08.126Z,1002.34
2018-04-07T01:11:08.101Z,1002.28
2018-04-07T01:12:08.076Z,1002.25
2018-04-07T01:13:08.052Z,1002.27
2018-04-07T01:14:08.025Z,1002.23
2018-04-07T01:15:08.001Z,1002.24
2018-04-07T01:16:07.976Z,1002.25
2018-04-07T01:17:07.950Z,1002.29
2018-04-07T01:18:07.927Z,1002.32
2018-04-07T01:19:07.902Z,1002.3
2018-04-07T01:20:07.877Z,1002.33
2018-04-07T01:21:07.852Z,1002.33
2018-04-07T01:22:07.827Z,1002.33
2018-04-07T01:23:07.804Z,1002.33
2018-04-07T01:24:07.778Z,1002.34
2018-04-07T01:25:07.752Z,1002.32
2018-04-07T01:26:07.729Z,1002.28
2018-04-07T01:27:07.705Z,1002.31
2018-04-07T01:28:07.680Z,1002.31
2018-04-07T01:29:07.655Z,1002.27
2018-04-07T01:30:07.629Z,1002.27
2018-04-07T01:31:07.606Z,1002.21
2018-04-07T01:32:07.583Z,1002.23
2018-04-07T01:33:07.556Z,1002.21
2018-04-07T01:34:07.529Z,1002.25
2018-04-07T01:35:07.506Z,1002.18
2018-04-07T01:36:07.481Z,1002.15
2018-04-07T01:37:07.456Z,1002.16
2018-04-07T01:38:07.429Z,1002.15
2018-04-07T01:39:07.405Z,1002.15
2018-04-07T01:40:07.382Z,1002.14
2018-04-07T01:41:07.357Z,1002.11
2018-04-07T01:42:07.332Z,1002.15
2018-04-07T01:43:07.306Z,1002.12
2018-04-07T01:44:07.282Z,1002.17
2018-04-07T01:45:07.262Z,1002.12
2018-04-07T01:46:07.257Z,1002.17
2018-04-07T01:47:07.206Z,1002.18
2018-04-07T01:48:07.183Z,1002.17
2018-04-07T01:49:07.158Z,1002.18
2018-04-07T01:50:07.132Z,1002.19
2018-04-07T01:51:07.108Z,1002.23
2018-04-07T01:52:07.083Z,1002.2
2018-04-07T01:53:07.056Z,1002.19
2018-04-07T01:54:07.032Z,1002.17
2018-04-07T01:55:07.018Z,1002.2
2018-04-07T01:56:06.983Z,1002.21
2018-04-07T01:57:06.958Z,1002.22
2018-04-07T01:58:06.937Z,1002.27
2018-04-07T01:59:06.908Z,1002.27
2018-04-07T02:00:06.883Z,1002.27
2018-04-07T02:01:06.858Z,1002.33
2018-04-07T02:02:06.834Z,1002.33
2018-04-07T02:03:06.809Z,1002.33
2018-04-07T02:04:06.784Z,1002.32
2018-04-07T02:05:06.759Z,1002.3
2018-04-07T02:06:06.735Z,1002.33
2018-04-07T02:07:06.709Z,1002.28
2018-04-07T02:08:06.685Z,1002.32
2018-04-07T02:09:06.659Z,1002.27
2018-04-07T02:10:06.635Z,1002.29
2018-04-07T02:11:06.609Z,1002.27
2018-04-07T02:12:06.585Z,1002.29
2018-04-07T02:13:06.559Z,1002.3
2018-04-07T02:14:06.535Z,1002.29
2018-04-07T02:15:06.509Z,1002.31
2018-04-07T02:16:06.485Z,1002.3
2018-04-07T02:17:06.461Z,1002.3
2018-04-07T02:18:06.433Z,1002.25
2018-04-07T02:19:06.409Z,1002.29
2018-04-07T02:20:06.387Z,1002.27
2018-04-07T02:21:06.360Z,1002.26
2018-04-07T02:22:06.333Z,1002.22
2018-04-07T02:23:06.308Z,1002.2
2018-04-07T02:24:06.284Z,1002.26
2018-04-07T02:25:06.259Z,1002.18
2018-04-07T02:26:06.233Z,1002.11
2018-04-07T02:27:06.208Z,1002.08
2018-04-07T02:28:06.182Z,1002.07
2018-04-07T02:29:06.158Z,1002.11
2018-04-07T02:30:06.135Z,1002.06
2018-04-07T02:31:06.108Z,1002.06
2018-04-07T02:32:06.082Z,1002.08
2018-04-07T02:33:06.056Z,1002.12
2018-04-07T02:34:06.032Z,1002.1
2018-04-07T02:35:06.007Z,1002.07
2018-04-07T02:36:05.983Z,1002.09
2018-04-07T02:37:05.954Z,1002.09
2018-04-07T02:38:05.931Z,1002.13
2018-04-07T02:39:05.906Z,1002.11
2018-04-07T02:40:05.884Z,1002.15
2018-04-07T02:41:05.955Z,1002.12
2018-04-07T02:42:05.833Z,1002.13
2018-04-07T02:43:05.806Z,1002.14
2018-04-07T02:44:05.785Z,1002.08
2018-04-07T02:45:05.755Z,1002.1
2018-04-07T02:46:05.730Z,1002.07
2018-04-07T02:47:05.710Z,1002.09
2018-04-07T02:48:05.681Z,1002.06
2018-04-07T02:49:05.652Z,1002.1
2018-04-07T02:50:05.627Z,1002.04
2018-04-07T02:51:05.603Z,1002.07
2018-04-07T02:52:05.578Z,1002.07
2018-04-07T02:53:05.555Z,1002.02
2018-04-07T02:54:05.532Z,1002
2018-04-07T02:55:05.501Z,1001.98
2018-04-07T02:56:05.484Z,1001.94
2018-04-07T02:57:05.450Z,1001.94
2018-04-07T02:58:05.426Z,1001.91
2018-04-07T02:59:05.401Z,1001.9
2018-04-07T03:00:05.381Z,1001.92
2018-04-07T03:01:05.352Z,1001.9
2018-04-07T03:02:05.325Z,1001.87
2018-04-07T03:03:05.302Z,1001.85
2018-04-07T03:04:05.275Z,1001.84
2018-04-07T03:05:05.255Z,1001.78
2018-04-07T03:06:05.225Z,1001.75
2018-04-07T03:07:05.207Z,1001.72
2018-04-07T03:08:05.174Z,1001.7
2018-04-07T03:09:05.148Z,1001.71
2018-04-07T03:10:05.123Z,1001.74
2018-04-07T03:11:05.097Z,1001.76
2018-04-07T03:12:05.072Z,1001.82
2018-04-07T03:13:05.046Z,1001.82
2018-04-07T03:14:05.020Z,1001.79
2018-04-07T03:15:04.996Z,1001.81
2018-04-07T03:16:04.970Z,1001.79
2018-04-07T03:17:04.947Z,1001.78
2018-04-07T03:18:04.920Z,1001.75
2018-04-07T03:19:04.894Z,1001.72
2018-04-07T03:20:04.868Z,1001.68
2018-04-07T03:21:04.843Z,1001.61
2018-04-07T03:22:04.818Z,1001.62
2018-04-07T03:23:04.793Z,1001.61
2018-04-07T03:24:04.771Z,1001.54
2018-04-07T03:25:04.741Z,1001.57
2018-04-07T03:26:04.716Z,1001.56
2018-04-07T03:27:04.691Z,1001.59
2018-04-07T03:28:04.664Z,1001.6
2018-04-07T03:29:04.640Z,1001.62
2018-04-07T03:30:04.614Z,1001.64
2018-04-07T03:31:04.588Z,1001.64
2018-04-07T03:32:04.563Z,1001.67
2018-04-07T03:33:04.536Z,1001.65
2018-04-07T03:34:04.512Z,1001.62
2018-04-07T03:35:04.484Z,1001.6
2018-04-07T03:36:04.460Z,1001.62
2018-04-07T03:37:04.435Z,1001.61
2018-04-07T03:38:04.410Z,1001.56
2018-04-07T03:39:04.382Z,1001.61
2018-04-07T03:40:04.358Z,1001.56
2018-04-07T03:41:04.334Z,1001.58
2018-04-07T03:42:04.306Z,1001.53
2018-04-07T03:43:04.281Z,1001.57
2018-04-07T03:44:04.256Z,1001.51
2018-04-07T03:45:04.229Z,1001.52
2018-04-07T03:46:04.204Z,1001.49
2018-04-07T03:47:04.179Z,1001.46
2018-04-07T03:48:04.153Z,1001.46
2018-04-07T03:49:04.127Z,1001.47
2018-04-07T03:50:04.100Z,1001.5
2018-04-07T03:51:04.076Z,1001.49
2018-04-07T03:52:04.050Z,1001.51
2018-04-07T03:53:04.025Z,1001.46
2018-04-07T03:54:03.999Z,1001.48
2018-04-07T03:55:03.974Z,1001.48
2018-04-07T03:56:03.948Z,1001.49
2018-04-07T03:57:03.923Z,1001.44
2018-04-07T03:58:03.898Z,1001.47
2018-04-07T03:59:03.872Z,1001.52
2018-04-07T04:00:03.973Z,1001.51
2018-04-07T04:01:03.819Z,1001.53
2018-04-07T04:02:03.795Z,1001.53
2018-04-07T04:03:03.770Z,1001.52
2018-04-07T04:04:03.747Z,1001.54
2018-04-07T04:05:03.720Z,1001.5
2018-04-07T04:06:03.692Z,1001.48
2018-04-07T04:07:03.668Z,1001.51
2018-04-07T04:08:03.642Z,1001.5
2018-04-07T04:09:03.622Z,1001.46
2018-04-07T04:10:03.591Z,1001.46
2018-04-07T04:11:03.567Z,1001.46
2018-04-07T04:12:03.541Z,1001.41
2018-04-07T04:13:03.514Z,1001.45
2018-04-07T04:14:03.490Z,1001.42
2018-04-07T04:15:03.467Z,1001.42
2018-04-07T04:16:03.438Z,1001.44
2018-04-07T04:17:03.413Z,1001.41
2018-04-07T04:18:03.388Z,1001.41
2018-04-07T04:19:03.361Z,1001.43
2018-04-07T04:20:03.337Z,1001.41
2018-04-07T04:21:03.311Z,1001.43
2018-04-07T04:22:03.288Z,1001.41
2018-04-07T04:23:03.260Z,1001.4
2018-04-07T04:24:03.235Z,1001.39
2018-04-07T04:25:03.217Z,1001.39
2018-04-07T04:26:03.184Z,1001.38
2018-04-07T04:27:03.159Z,1001.37
2018-04-07T04:28:03.132Z,1001.34
2018-04-07T04:29:03.107Z,1001.33
2018-04-07T04:30:03.082Z,1001.31
2018-04-07T04:31:03.056Z,1001.28
2018-04-07T04:32:03.031Z,1001.3
2018-04-07T04:33:03.006Z,1001.28
2018-04-07T04:34:02.980Z,1001.29
2018-04-07T04:35:02.954Z,1001.33
2018-04-07T04:36:02.930Z,1001.25
2018-04-07T04:37:02.903Z,1001.29
2018-04-07T04:38:02.877Z,1001.28
2018-04-07T04:39:02.852Z,1001.24
2018-04-07T04:40:02.825Z,1001.26
2018-04-07T04:41:02.799Z,1001.25
2018-04-07T04:42:02.774Z,1001.19
2018-04-07T04:43:02.750Z,1001.24
2018-04-07T04:44:02.724Z,1001.23
2018-04-07T04:45:02.698Z,1001.23
2018-04-07T04:46:02.673Z,1001.22
2018-04-07T04:47:02.647Z,1001.2
2018-04-07T04:48:02.620Z,1001.23
2018-04-07T04:49:02.595Z,1001.19
2018-04-07T04:50:02.570Z,1001.22
2018-04-07T04:51:02.544Z,1001.22
2018-04-07T04:52:02.518Z,1001.24
2018-04-07T04:53:02.492Z,1001.24
2018-04-07T04:54:02.466Z,1001.22
2018-04-07T04:55:02.447Z,1001.22
2018-04-07T04:56:02.415Z,1001.22
2018-04-07T04:57:02.390Z,1001.21
2018-04-07T04:58:02.363Z,1001.19
2018-04-07T04:59:02.340Z,1001.23
2018-04-07T05:00:02.312Z,1001.2
2018-04-07T05:01:02.286Z,1001.23
2018-04-07T05:02:02.262Z,1001.22
2018-04-07T05:03:02.235Z,1001.21
2018-04-07T05:04:02.209Z,1001.24
2018-04-07T05:05:02.184Z,1001.25
2018-04-07T05:06:02.157Z,1001.24
2018-04-07T05:07:02.132Z,1001.24
2018-04-07T05:08:02.107Z,1001.21
2018-04-07T05:09:02.080Z,1001.23
2018-04-07T05:10:02.058Z,1001.2
2018-04-07T05:11:02.028Z,1001.2
2018-04-07T05:12:02.005Z,1001.2
2018-04-07T05:13:01.978Z,1001.2
2018-04-07T05:14:01.956Z,1001.17
2018-04-07T05:15:02.025Z,1001.17
2018-04-07T05:16:01.901Z,1001.16
2018-04-07T05:17:01.874Z,1001.11
2018-04-07T05:18:01.897Z,1001.12
2018-04-07T05:19:01.827Z,1001.16
2018-04-07T05:20:01.798Z,1001.13
2018-04-07T05:21:01.773Z,1001.15
2018-04-07T05:22:01.747Z,1001.17
2018-04-07T05:23:01.721Z,1001.12
2018-04-07T05:24:01.698Z,1001.14
2018-04-07T05:25:01.670Z,1001.15
2018-04-07T05:26:01.644Z,1001.1
2018-04-07T05:27:01.620Z,1001.12
2018-04-07T05:28:01.594Z,1001.07
2018-04-07T05:29:01.569Z,1001.12
2018-04-07T05:30:01.543Z,1001.15
2018-04-07T05:31:01.519Z,1001.11
2018-04-07T05:32:01.496Z,1001.12
2018-04-07T05:33:01.466Z,1001.13
2018-04-07T05:34:01.448Z,1001.12
2018-04-07T05:35:01.416Z,1001.15
2018-04-07T05:36:01.390Z,1001.16
2018-04-07T05:37:01.366Z,1001.16
2018-04-07T05:38:01.342Z,1001.13
2018-04-07T05:39:01.315Z,1001.17
2018-04-07T05:40:01.289Z,1001.14
2018-04-07T05:41:01.266Z,1001.12
2018-04-07T05:42:01.241Z,1001.15
2018-04-07T05:43:01.215Z,1001.15
2018-04-07T05:44:01.189Z,1001.16
2018-04-07T05:45:01.165Z,1001.15
2018-04-07T05:46:01.140Z,1001.16
2018-04-07T05:47:01.115Z,1001.13
2018-04-07T05:48:01.090Z,1001.17
2018-04-07T05:49:01.065Z,1001.15
2018-04-07T05:50:01.040Z,1001.15
2018-04-07T05:51:01.015Z,1001.14
2018-04-07T05:52:00.990Z,1001.16
2018-04-07T05:53:01.012Z,1001.15
2018-04-07T05:54:00.940Z,1001.15
2018-04-07T05:55:00.915Z,1001.16
2018-04-07T05:56:00.892Z,1001.18
2018-04-07T05:57:00.867Z,1001.18
2018-04-07T05:58:00.845Z,1001.15
2018-04-07T05:59:00.826Z,1001.17
2018-04-07T06:00:00.793Z,1001.19
2018-04-07T06:01:00.767Z,1001.15
2018-04-07T06:02:00.743Z,1001.18
2018-04-07T06:03:00.719Z,1001.16
2018-04-07T06:04:00.695Z,1001.13
2018-04-07T06:05:00.670Z,1001.09
2018-04-07T06:06:00.645Z,1001.14
2018-04-07T06:07:00.622Z,1001.11
2018-04-07T06:08:00.597Z,1001.14
2018-04-07T06:09:00.573Z,1001.12
2018-04-07T06:10:00.550Z,1001.06
2018-04-07T06:11:00.525Z,1001.1
2018-04-07T06:12:00.507Z,1001.12
2018-04-07T06:13:00.480Z,1001.11
2018-04-07T06:14:00.453Z,1001.12
2018-04-07T06:15:00.428Z,1001.1
2018-04-07T06:16:00.404Z,1001.14
2018-04-07T06:17:00.381Z,1001.13
2018-04-07T06:18:00.356Z,1001.14
2018-04-07T06:19:00.334Z,1001.14
2018-04-07T06:20:00.311Z,1001.17
2018-04-07T06:21:00.286Z,1001.17
2018-04-07T06:22:00.262Z,1001.19
2018-04-07T06:23:00.237Z,1001.18
2018-04-07T06:24:00.214Z,1001.19
2018-04-07T06:25:00.191Z,1001.18
2018-04-07T06:26:00.177Z,1001.14
2018-04-07T06:27:00.144Z,1001.13
2018-04-07T06:28:00.119Z,1001.13
2018-04-07T06:29:00.097Z,1001.13
2018-04-07T06:30:00.073Z,1001.16
2018-04-07T06:31:00.053Z,1001.12
2018-04-07T06:32:00.028Z,1001.14
2018-04-07T06:33:00.004Z,1001.14
2018-04-07T06:33:59.980Z,1001.14
2018-04-07T06:34:59.958Z,1001.1
2018-04-07T06:35:59.935Z,1001.12
2018-04-07T06:36:59.912Z,1001.09
2018-04-07T06:37:59.888Z,1001.08
2018-04-07T06:38:59.865Z,1001.05
2018-04-07T06:39:59.842Z,1001.07
2018-04-07T06:40:59.819Z,1001.06
2018-04-07T06:41:59.838Z,1001.06
2018-04-07T06:42:59.774Z,1001.07
2018-04-07T06:43:59.757Z,1001
2018-04-07T06:44:59.733Z,1000.99
2018-04-07T06:45:59.707Z,1000.99
2018-04-07T06:46:59.688Z,1001
2018-04-07T06:47:59.679Z,1001
2018-04-07T06:48:59.647Z,1001.01
2018-04-07T06:49:59.666Z,1001.06
2018-04-07T06:50:59.593Z,1001.03
2018-04-07T06:51:59.572Z,1001
2018-04-07T06:52:59.548Z,1001.04
2018-04-07T06:53:59.528Z,1001.02
2018-04-07T06:54:59.527Z,1001.07
2018-04-07T06:55:59.481Z,1001.04
2018-04-07T06:56:59.460Z,1001.02
2018-04-07T06:57:59.436Z,1001.04
2018-04-07T06:58:59.416Z,1001.09
2018-04-07T06:59:59.391Z,1001.11
2018-04-07T07:00:59.371Z,1001.03
2018-04-07T07:01:59.352Z,1001.08
2018-04-07T07:02:59.327Z,1001.08
2018-04-07T07:03:59.304Z,1001.08
2018-04-07T07:04:59.282Z,1001.12
2018-04-07T07:05:59.261Z,1001.15
2018-04-07T07:06:59.239Z,1001.14
2018-04-07T07:07:59.217Z,1001.09
2018-04-07T07:08:59.231Z,1001.06
2018-04-07T07:09:59.175Z,1001.06
2018-04-07T07:10:59.150Z,1001.09
2018-04-07T07:11:59.130Z,1001.06
2018-04-07T07:12:59.107Z,1001.02
2018-04-07T07:13:59.084Z,1001.03
2018-04-07T07:14:59.069Z,1001.07
2018-04-07T07:15:59.042Z,1001.09
2018-04-07T07:16:59.022Z,1001.06
2018-04-07T07:17:59.000Z,1001.05
2018-04-07T07:18:58.978Z,1001.08
2018-04-07T07:19:58.956Z,1001.05
2018-04-07T07:20:58.936Z,1001.14
2018-04-07T07:21:58.913Z,1001.08
2018-04-07T07:22:58.894Z,1001.07
2018-04-07T07:23:58.880Z,1001.07
2018-04-07T07:24:58.855Z,1001.06
2018-04-07T07:25:58.831Z,1001.06
2018-04-07T07:26:58.811Z,1001.07
2018-04-07T07:27:58.790Z,1001.06
2018-04-07T07:28:58.767Z,1001.05
2018-04-07T07:29:58.748Z,1001.04
2018-04-07T07:30:58.734Z,1001.02
2018-04-07T07:31:58.708Z,1001.06
2018-04-07T07:32:58.688Z,1001.07
2018-04-07T07:33:58.668Z,1001.09
2018-04-07T07:34:58.647Z,1001.02
2018-04-07T07:35:58.626Z,1001.06
2018-04-07T07:36:58.606Z,1001.02
2018-04-07T07:37:58.585Z,1001
2018-04-07T07:38:58.566Z,1001.02
2018-04-07T07:39:58.544Z,1001.03
2018-04-07T07:40:58.524Z,1001.06
2018-04-07T07:41:58.580Z,1001.06
2018-04-07T07:42:58.484Z,1001.03
2018-04-07T07:43:58.463Z,1001.04
2018-04-07T07:44:58.445Z,1001
2018-04-07T07:45:58.422Z,1001.01
2018-04-07T07:46:58.402Z,1000.96
2018-04-07T07:47:58.381Z,1000.99
2018-04-07T07:48:58.363Z,1000.99
2018-04-07T07:49:58.345Z,1000.97
2018-04-07T07:50:58.321Z,1001
2018-04-07T07:51:58.305Z,1001.02
2018-04-07T07:52:58.281Z,1000.98
2018-04-07T07:53:58.261Z,1000.95
2018-04-07T07:54:58.241Z,1000.98
2018-04-07T07:55:58.220Z,1000.97
2018-04-07T07:56:58.200Z,1000.95
2018-04-07T07:57:58.180Z,1000.88
2018-04-07T07:58:58.160Z,1000.9
2018-04-07T07:59:58.184Z,1000.91
2018-04-07T08:00:58.120Z,1000.93
2018-04-07T08:01:58.107Z,1000.91
2018-04-07T08:02:58.080Z,1000.91
2018-04-07T08:03:58.060Z,1000.93
2018-04-07T08:04:58.068Z,1000.86
2018-04-07T08:05:58.020Z,1000.87
2018-04-07T08:06:58.011Z,1000.9
2018-04-07T08:07:57.981Z,1000.81
2018-04-07T08:08:57.960Z,1000.82
2018-04-07T08:09:57.941Z,1000.87
2018-04-07T08:10:57.922Z,1000.88
2018-04-07T08:11:58.002Z,1000.88
2018-04-07T08:12:57.882Z,1000.88
2018-04-07T08:13:57.861Z,1000.93
2018-04-07T08:14:57.843Z,1000.92
2018-04-07T08:15:57.822Z,1000.89
2018-04-07T08:16:57.803Z,1000.89
2018-04-07T08:17:57.783Z,1000.88
2018-04-07T08:18:57.765Z,1000.92
2018-04-07T08:19:57.747Z,1000.9
2018-04-07T08:20:57.725Z,1000.91
2018-04-07T08:21:57.705Z,1000.9
2018-04-07T08:22:57.685Z,1000.87
2018-04-07T08:23:57.666Z,1000.89
2018-04-07T08:24:57.648Z,1000.89
2018-04-07T08:25:57.631Z,1000.86
2018-04-07T08:26:57.609Z,1000.89
2018-04-07T08:27:57.589Z,1000.86
2018-04-07T08:28:57.569Z,1000.82
2018-04-07T08:29:57.551Z,1000.87
2018-04-07T08:30:57.532Z,1000.89
2018-04-07T08:31:57.512Z,1000.85
2018-04-07T08:32:57.494Z,1000.91
2018-04-07T08:33:57.474Z,1000.91
2018-04-07T08:34:57.455Z,1000.91
2018-04-07T08:35:57.436Z,1000.93
2018-04-07T08:36:57.417Z,1000.97
2018-04-07T08:37:57.397Z,1000.94
2018-04-07T08:38:57.379Z,1000.96
2018-04-07T08:39:57.360Z,1000.97
2018-04-07T08:40:57.340Z,1000.98
2018-04-07T08:41:57.321Z,1001.01
2018-04-07T08:42:57.308Z,1001.07
2018-04-07T08:43:57.284Z,1001.03
2018-04-07T08:44:57.267Z,1001.06
2018-04-07T08:45:57.247Z,1001.08
2018-04-07T08:46:57.234Z,1001.09
2018-04-07T08:47:57.211Z,1001
2018-04-07T08:48:57.190Z,1001.03
2018-04-07T08:49:57.180Z,1001.07
2018-04-07T08:50:57.155Z,1001.07
2018-04-07T08:51:57.138Z,1001.08
2018-04-07T08:52:57.117Z,1001.04
2018-04-07T08:53:57.103Z,1001.09
2018-04-07T08:54:57.085Z,1001.06
2018-04-07T08:55:57.063Z,1001.04
2018-04-07T08:56:57.044Z,1001.08
2018-04-07T08:57:57.027Z,1001.1
2018-04-07T08:58:57.008Z,1001.11
2018-04-07T08:59:56.989Z,1001.1
2018-04-07T09:00:57.031Z,1001.09
2018-04-07T09:01:56.954Z,1001.09
2018-04-07T09:02:56.937Z,1001.1
2018-04-07T09:03:56.916Z,1001.02
2018-04-07T09:04:56.899Z,1001.07
2018-04-07T09:05:56.882Z,1001.02
2018-04-07T09:06:56.863Z,1001.01
2018-04-07T09:07:56.865Z,1001.01
2018-04-07T09:08:56.828Z,1000.98
2018-04-07T09:09:56.810Z,1000.98
2018-04-07T09:10:56.793Z,1000.95
2018-04-07T09:11:56.774Z,1000.96
2018-04-07T09:12:56.759Z,1000.92
2018-04-07T09:13:56.739Z,1000.99
2018-04-07T09:14:56.722Z,1000.96
2018-04-07T09:15:56.704Z,1000.99
2018-04-07T09:16:56.687Z,1001.01
2018-04-07T09:17:56.671Z,1000.96
2018-04-07T09:18:56.653Z,1000.98
2018-04-07T09:19:56.634Z,1000.96
2018-04-07T09:20:56.619Z,1000.93
2018-04-07T09:21:56.607Z,1000.88
2018-04-07T09:22:56.587Z,1000.9
2018-04-07T09:23:56.566Z,1000.89
2018-04-07T09:24:56.548Z,1000.87
2018-04-07T09:25:56.532Z,1000.89
2018-04-07T09:26:56.515Z,1000.86
2018-04-07T09:27:56.497Z,1000.86
2018-04-07T09:28:56.480Z,1000.86
2018-04-07T09:29:56.463Z,1000.81
2018-04-07T09:30:56.447Z,1000.87
2018-04-07T09:31:56.429Z,1000.84
2018-04-07T09:32:56.412Z,1000.85
2018-04-07T09:33:56.395Z,1000.81
2018-04-07T09:34:56.378Z,1000.78
2018-04-07T09:35:56.361Z,1000.78
2018-04-07T09:36:56.344Z,1000.82
2018-04-07T09:37:56.328Z,1000.76
2018-04-07T09:38:56.310Z,1000.74
2018-04-07T09:39:56.295Z,1000.71
2018-04-07T09:40:56.278Z,1000.72
2018-04-07T09:41:56.261Z,1000.7
2018-04-07T09:42:56.248Z,1000.74
2018-04-07T09:43:56.227Z,1000.74
2018-04-07T09:44:56.210Z,1000.72
2018-04-07T09:45:56.199Z,1000.65
2018-04-07T09:46:56.179Z,1000.66
2018-04-07T09:47:56.161Z,1000.64
2018-04-07T09:48:56.145Z,1000.64
2018-04-07T09:49:56.127Z,1000.67
2018-04-07T09:50:56.145Z,1000.65
2018-04-07T09:51:56.095Z,1000.62
2018-04-07T09:52:56.090Z,1000.66
2018-04-07T09:53:56.065Z,1000.61
2018-04-07T09:54:56.045Z,1000.6
2018-04-07T09:55:56.030Z,1000.56
2018-04-07T09:56:56.013Z,1000.59
2018-04-07T09:57:55.997Z,1000.58
2018-04-07T09:58:55.980Z,1000.6
2018-04-07T09:59:55.963Z,1000.6
2018-04-07T10:00:55.948Z,1000.61
2018-04-07T10:01:55.932Z,1000.6
2018-04-07T10:02:55.915Z,1000.56
2018-04-07T10:03:55.900Z,1000.58
2018-04-07T10:04:55.884Z,1000.61
2018-04-07T10:05:55.867Z,1000.6
2018-04-07T10:06:55.855Z,1000.58
2018-04-07T10:07:55.835Z,1000.51
2018-04-07T10:08:55.820Z,1000.51
2018-04-07T10:09:55.803Z,1000.58
2018-04-07T10:10:55.788Z,1000.53
2018-04-07T10:11:55.772Z,1000.49
2018-04-07T10:12:55.756Z,1000.56
2018-04-07T10:13:55.761Z,1000.58
2018-04-07T10:14:55.725Z,1000.53
2018-04-07T10:15:55.708Z,1000.51
2018-04-07T10:16:55.691Z,1000.47
2018-04-07T10:17:55.680Z,1000.41
2018-04-07T10:18:55.661Z,1000.48
2018-04-07T10:19:55.646Z,1000.42
2018-04-07T10:20:55.629Z,1000.46
2018-04-07T10:21:55.615Z,1000.41
2018-04-07T10:22:55.603Z,1000.38
2018-04-07T10:23:55.584Z,1000.41
2018-04-07T10:24:55.569Z,1000.33
2018-04-07T10:25:55.554Z,1000.37
2018-04-07T10:26:55.539Z,1000.34
2018-04-07T10:27:55.523Z,1000.3
2018-04-07T10:28:55.508Z,1000.24
2018-04-07T10:29:55.502Z,1000.25
2018-04-07T10:30:55.478Z,1000.23
2018-04-07T10:31:55.461Z,1000.24
2018-04-07T10:32:55.447Z,1000.23
2018-04-07T10:33:55.431Z,1000.26
2018-04-07T10:34:55.416Z,1000.25
2018-04-07T10:35:55.402Z,1000.24
2018-04-07T10:36:55.387Z,1000.2
2018-04-07T10:37:55.372Z,1000.22
2018-04-07T10:38:55.357Z,1000.28
2018-04-07T10:39:55.343Z,1000.28
2018-04-07T10:40:55.327Z,1000.22
2018-04-07T10:41:55.317Z,1000.23
2018-04-07T10:42:55.299Z,1000.21
2018-04-07T10:43:55.284Z,1000.22
2018-04-07T10:44:55.270Z,1000.26
2018-04-07T10:45:55.254Z,1000.26
2018-04-07T10:46:55.240Z,1000.22
2018-04-07T10:47:55.225Z,1000.14
2018-04-07T10:48:55.212Z,1000.23
2018-04-07T10:49:55.199Z,1000.19
2018-04-07T10:50:55.187Z,1000.16
2018-04-07T10:51:55.168Z,1000.21
2018-04-07T10:52:55.153Z,1000.2
2018-04-07T10:53:55.140Z,1000.2
2018-04-07T10:54:55.124Z,1000.17
2018-04-07T10:55:55.112Z,1000.15
2018-04-07T10:56:55.097Z,1000.17
2018-04-07T10:57:55.083Z,1000.16
2018-04-07T10:58:55.069Z,1000.17
2018-04-07T10:59:55.058Z,1000.16
2018-04-07T11:00:55.040Z,1000.23
2018-04-07T11:01:55.026Z,1000.15
2018-04-07T11:02:55.302Z,1000.23
2018-04-07T11:03:54.996Z,1000.27
2018-04-07T11:04:54.983Z,1000.19
2018-04-07T11:05:54.970Z,1000.22
2018-04-07T11:06:54.955Z,1000.22
2018-04-07T11:07:54.941Z,1000.18
2018-04-07T11:08:54.927Z,1000.2
2018-04-07T11:09:54.913Z,1000.12
2018-04-07T11:10:54.900Z,1000.14
2018-04-07T11:11:54.887Z,1000.15
2018-04-07T11:12:54.871Z,1000.14
2018-04-07T11:13:54.857Z,1000.14
2018-04-07T11:14:54.842Z,1000.13
2018-04-07T11:15:54.828Z,1000.11
2018-04-07T11:16:54.816Z,1000.13
2018-04-07T11:17:54.802Z,1000.13
2018-04-07T11:18:54.789Z,1000.12
2018-04-07T11:19:54.778Z,1000.11
2018-04-07T11:20:54.760Z,1000.09
2018-04-07T11:21:54.749Z,1000.14
2018-04-07T11:22:54.734Z,1000.16
2018-04-07T11:23:54.720Z,1000.16
2018-04-07T11:24:54.708Z,1000.15
2018-04-07T11:25:54.693Z,1000.09
2018-04-07T11:26:54.679Z,1000.16
2018-04-07T11:27:54.666Z,1000.12
2018-04-07T11:28:54.654Z,1000.16
2018-04-07T11:29:54.750Z,1000.12
2018-04-07T11:30:54.660Z,1000.05
2018-04-07T11:31:54.667Z,1000.11
2018-04-07T11:32:54.599Z,1000.1
2018-04-07T11:33:54.585Z,1000.09
2018-04-07T11:34:54.578Z,1000.08
2018-04-07T11:35:54.561Z,1000.1
2018-04-07T11:36:54.546Z,1000.12
2018-04-07T11:37:54.534Z,1000.14
2018-04-07T11:38:54.522Z,1000.1
2018-04-07T11:39:54.508Z,1000.08
2018-04-07T11:40:54.494Z,1000.06
2018-04-07T11:41:54.482Z,1000.02
2018-04-07T11:42:54.471Z,1000.03
2018-04-07T11:43:54.456Z,999.98
2018-04-07T11:44:54.443Z,999.98
2018-04-07T11:45:54.430Z,999.98
2018-04-07T11:46:54.419Z,999.97
2018-04-07T11:47:54.405Z,999.97
2018-04-07T11:48:54.392Z,999.97
2018-04-07T11:49:54.480Z,999.96
2018-04-07T11:50:54.368Z,999.9
2018-04-07T11:51:54.354Z,999.95
2018-04-07T11:52:54.343Z,999.94
2018-04-07T11:53:54.328Z,999.9
2018-04-07T11:54:54.317Z,999.87
2018-04-07T11:55:54.303Z,999.86
2018-04-07T11:56:54.291Z,999.93
2018-04-07T11:57:54.279Z,999.91
2018-04-07T11:58:54.267Z,999.92
2018-04-07T11:59:54.258Z,999.98
2018-04-07T12:00:54.242Z,999.91
2018-04-07T12:01:54.230Z,999.86
2018-04-07T12:02:54.217Z,999.9
2018-04-07T12:03:54.205Z,999.89
2018-04-07T12:04:54.193Z,999.87
2018-04-07T12:05:54.179Z,999.81
2018-04-07T12:06:54.168Z,999.77
2018-04-07T12:07:54.154Z,999.83
2018-04-07T12:08:54.143Z,999.78